KRSW

Southwest Florida International Airport

Fort Myers, Florida, USA
METAR KRSW 161753Z 36007KT 10SM CLR 18/06 A3021 RMK AO2 SLP226 T01780056 10178 20072 58017
Observed Flight Rules
Jan-16 @ 17:53 UTC (48 minutes ago) Visual Flight Rules
Wind Visibility Clouds
360° at 7 knots 10 miles
  • Clear skies
Temperatures Readings
Current 18°C / 64°F
Dewpoint 6°C / 43°F
Humidity 46%
Altimeter 30.21" Hg
Pressure 1022.6 hPa
Elevation 10
METAR KRSW 161753Z 36007KT 10SM CLR 18/06 A3021 RMK AO2 SLP226 T01780056 10178 20072 58017
Observed Flight Rules
Jan-16 @ 17:53 UTC
(48 minutes ago)
VFR
Wind Visibility
360° at 7 knots 10 miles
Clouds
  • Clear skies
Temperature Dewpoint
18°C / 64°F 6°C / 43°F
Humidity Altimeter Pressure
46% 30.21" Hg 1022.6 hPa